Time;durP1;ratioP1;P1;durP2;ratioP2;P2;SDS_P1;SDS_P2;PMS_P1;PMS_P2;Temp;Humidity;BMP_temperature;BMP_pressure;BME280_temperature;BME280_humidity;BME280_pressure;Samples;Min_cycle;Max_cycle;Signal;HPM_P1;HPM_P2
2023/07/04 00:02:24;;;;;;;5.03;3.17;;;21.70;99.90;;;;;;5111350;28;20043;-69
2023/07/04 00:04:55;;;;;;;6.25;3.38;;;21.70;99.90;;;;;;5174588;28;20296;-71
2023/07/04 00:07:26;;;;;;;5.53;3.35;;;21.60;99.90;;;;;;5102556;29;20053;-72
2023/07/04 00:10:03;;;;;;;6.13;3.35;;;21.60;99.90;;;;;;5113814;29;20031;-70
2023/07/04 00:12:39;;;;;;;7.85;3.35;;;21.50;99.90;;;;;;5115444;29;20144;-71
2023/07/04 00:15:12;;;;;;;8.20;3.92;;;21.50;99.90;;;;;;5092677;28;20027;-70
2023/07/04 00:17:43;;;;;;;6.35;3.90;;;21.50;99.90;;;;;;5096936;28;20035;-71
2023/07/04 00:20:15;;;;;;;4.50;3.38;;;21.40;99.90;;;;;;5098252;29;20031;-70
2023/07/04 00:22:47;;;;;;;6.40;3.85;;;21.40;1.00;;;;;;5090563;28;20043;-70
2023/07/04 00:25:18;;;;;;;6.18;3.72;;;21.30;1.00;;;;;;5092209;29;20032;-70
2023/07/04 00:27:50;;;;;;;8.05;3.70;;;21.10;1.00;;;;;;5073964;28;20031;-71
2023/07/04 00:30:25;;;;;;;4.88;3.85;;;21.00;1.00;;;;;;5091497;28;20452;-69
2023/07/04 00:32:56;;;;;;;5.10;3.65;;;20.90;1.00;;;;;;5081062;28;20137;-70
2023/07/04 00:35:28;;;;;;;7.57;3.65;;;20.80;1.00;;;;;;5191448;28;20247;-71
2023/07/04 00:38:02;;;;;;;7.13;3.90;;;20.80;1.00;;;;;;5194033;28;20043;-70
2023/07/04 00:40:33;;;;;;;7.15;3.72;;;20.70;4.40;;;;;;5106679;29;20041;-70
2023/07/04 00:43:08;;;;;;;7.82;4.20;;;20.60;6.60;;;;;;5095848;29;20047;-70
2023/07/04 00:45:48;;;;;;;6.63;3.50;;;20.60;99.90;;;;;;5087028;29;20027;-70
2023/07/04 00:48:21;;;;;;;8.48;3.70;;;20.50;1.00;;;;;;5089845;28;20054;-70
2023/07/04 00:51:02;;;;;;;5.82;3.47;;;20.40;99.90;;;;;;5103254;29;20037;-71
2023/07/04 00:53:35;;;;;;;5.38;3.42;;;20.30;1.00;;;;;;5091035;28;20340;-70
2023/07/04 00:56:06;;;;;;;5.72;3.70;;;20.10;1.00;;;;;;5108678;28;20047;-71
2023/07/04 00:58:42;;;;;;;7.07;3.30;;;20.00;1.00;;;;;;5116004;28;20232;-71
2023/07/04 01:01:14;;;;;;;5.88;3.13;;;19.90;1.00;;;;;;5235759;22;20048;-71
2023/07/04 01:03:50;;;;;;;6.22;3.40;;;19.80;1.00;;;;;;5221516;28;20036;-71
2023/07/04 01:06:26;;;;;;;9.18;3.67;;;19.70;1.00;;;;;;5220977;28;20028;-70
2023/07/04 01:09:05;;;;;;;7.30;4.43;;;19.70;99.90;;;;;;5208160;28;20040;-70
2023/07/04 01:11:44;;;;;;;9.63;4.15;;;19.60;1.00;;;;;;5227123;28;20028;-71
2023/07/04 01:14:25;;;;;;;6.65;3.42;;;19.50;1.00;;;;;;5219264;28;20044;-70
2023/07/04 01:16:57;;;;;;;7.95;5.03;;;19.40;15.00;;;;;;5240038;28;20032;-70
2023/07/04 01:19:35;;;;;;;6.63;3.35;;;19.30;99.90;;;;;;5225747;28;20036;-72
2023/07/04 01:22:39;;;;;;;6.47;3.85;;;19.20;1.00;;;;;;5244693;28;20035;-71
2023/07/04 01:25:14;;;;;;;6.93;3.95;;;19.10;1.00;;;;;;5199401;28;20045;-71
2023/07/04 01:27:51;;;;;;;5.75;3.78;;;19.00;1.00;;;;;;5192968;28;20041;-71
2023/07/04 01:30:25;;;;;;;7.80;4.15;;;18.90;1.00;;;;;;5161315;28;20478;-71
2023/07/04 01:32:59;;;;;;;5.97;3.60;;;18.70;1.00;;;;;;5180182;28;20037;-71
2023/07/04 01:35:36;;;;;;;8.32;4.28;;;18.70;15.60;;;;;;5196588;28;20379;-70
2023/07/04 01:38:11;;;;;;;6.53;3.83;;;18.60;99.90;;;;;;5199859;28;20195;-71
2023/07/04 01:40:43;;;;;;;6.07;3.72;;;18.50;99.90;;;;;;5199555;28;20037;-71
2023/07/04 01:43:15;;;;;;;7.70;4.20;;;18.50;99.90;;;;;;5178606;28;20044;-70
2023/07/04 01:45:49;;;;;;;5.63;3.72;;;18.50;99.90;;;;;;5194397;28;20498;-71
2023/07/04 01:48:24;;;;;;;7.63;3.50;;;18.50;99.90;;;;;;5201057;28;20624;-71
2023/07/04 01:51:01;;;;;;;5.78;3.45;;;18.50;99.90;;;;;;5181373;28;20040;-71
2023/07/04 01:53:35;;;;;;;7.90;3.88;;;18.50;99.90;;;;;;5194178;28;20042;-70
2023/07/04 01:56:10;;;;;;;9.43;3.95;;;18.60;99.90;;;;;;5171779;28;20045;-70
2023/07/04 01:58:41;;;;;;;;;;;18.60;1.00;;;;;;5176649;28;20254;-70
2023/07/04 02:01:14;;;;;;;5.75;3.40;;;18.60;1.00;;;;;;5204694;28;19979;-71
2023/07/04 02:03:48;;;;;;;6.45;3.75;;;18.60;1.00;;;;;;5225681;28;20370;-71
2023/07/04 02:06:22;;;;;;;8.70;4.32;;;18.50;99.90;;;;;;5232233;28;20036;-71
2023/07/04 02:08:53;;;;;;;;;;;18.50;99.90;;;;;;5212976;28;20333;-70
2023/07/04 02:11:25;;;;;;;6.03;3.47;;;18.40;99.90;;;;;;5236272;28;19987;-71
2023/07/04 02:13:58;;;;;;;7.72;4.00;;;18.30;99.90;;;;;;5208254;28;20533;-71
2023/07/04 02:16:31;;;;;;;7.47;3.38;;;18.20;99.90;;;;;;5217213;28;20045;-72
2023/07/04 02:19:02;;;;;;;6.35;4.00;;;18.10;1.00;;;;;;5204178;28;20443;-71
2023/07/04 02:21:37;;;;;;;7.00;4.35;;;18.10;1.00;;;;;;5203640;28;20032;-71
2023/07/04 02:24:11;;;;;;;6.47;4.05;;;18.00;99.90;;;;;;5203432;28;20037;-70
2023/07/04 02:26:46;;;;;;;6.22;3.83;;;18.00;99.90;;;;;;5237950;28;20488;-71
2023/07/04 02:29:20;;;;;;;6.47;3.75;;;18.10;99.90;;;;;;5207541;28;20492;-71
2023/07/04 02:31:51;;;;;;;7.35;3.75;;;18.20;99.90;;;;;;5237345;28;20341;-71
2023/07/04 02:34:25;;;;;;;6.97;3.58;;;18.30;75.30;;;;;;5224548;28;20267;-70
2023/07/04 02:36:59;;;;;;;5.37;3.80;;;18.30;1.00;;;;;;5201940;28;20386;-70
2023/07/04 02:39:30;;;;;;;6.85;4.22;;;18.40;1.00;;;;;;5225217;28;20573;-70
2023/07/04 02:42:01;;;;;;;6.55;3.92;;;18.40;16.10;;;;;;5242963;28;20042;-70
2023/07/04 02:44:33;;;;;;;5.15;3.50;;;18.50;1.00;;;;;;5223436;28;20025;-70
2023/07/04 02:47:07;;;;;;;5.22;3.22;;;18.50;1.00;;;;;;5215852;28;20085;-71
2023/07/04 02:49:38;;;;;;;7.28;3.92;;;18.50;1.00;;;;;;5225443;28;20241;-69
2023/07/04 02:52:10;;;;;;;6.43;3.63;;;18.50;1.00;;;;;;5228551;28;20032;-70
2023/07/04 02:54:44;;;;;;;7.68;4.00;;;18.50;99.90;;;;;;5222952;28;20051;-70
2023/07/04 02:57:18;;;;;;;5.45;3.88;;;18.30;99.90;;;;;;5213599;28;20044;-71
2023/07/04 02:59:53;;;;;;;6.68;3.95;;;18.20;99.90;;;;;;5224991;28;20063;-72
2023/07/04 03:02:28;;;;;;;5.45;3.72;;;18.20;99.90;;;;;;5238072;28;20043;-70
2023/07/04 03:05:02;;;;;;;8.07;3.83;;;18.10;99.90;;;;;;5228021;28;20040;-70
2023/07/04 03:07:34;;;;;;;6.18;3.97;;;18.10;99.90;;;;;;5221153;28;20036;-70
2023/07/04 03:10:06;;;;;;;5.65;3.90;;;18.00;1.00;;;;;;5221250;28;20448;-70
2023/07/04 03:12:39;;;;;;;7.93;3.78;;;18.00;1.00;;;;;;5204447;28;20049;-70
2023/07/04 03:15:11;;;;;;;6.50;3.22;;;17.90;1.00;;;;;;5216085;28;20032;-71
2023/07/04 03:17:42;;;;;;;6.80;3.90;;;17.80;1.00;;;;;;5205063;28;20031;-72
2023/07/04 03:20:13;;;;;;;5.57;3.55;;;17.80;1.00;;;;;;5207422;28;20024;-71
2023/07/04 03:22:46;;;;;;;5.47;3.67;;;17.70;1.00;;;;;;5219373;28;20045;-71
2023/07/04 03:25:18;;;;;;;5.00;3.38;;;17.70;1.00;;;;;;5240691;28;20241;-71
2023/07/04 03:27:49;;;;;;;5.97;3.30;;;17.70;1.00;;;;;;5232923;28;20563;-70
2023/07/04 03:30:21;;;;;;;7.22;3.97;;;17.60;1.00;;;;;;5201664;28;20470;-71
2023/07/04 03:32:55;;;;;;;6.50;3.75;;;17.60;1.00;;;;;;5218336;28;20357;-71
2023/07/04 03:35:29;;;;;;;5.20;3.43;;;17.60;1.00;;;;;;5218920;28;20663;-71
2023/07/04 03:38:01;;;;;;;5.20;3.55;;;17.70;1.00;;;;;;5204834;28;20040;-71
2023/07/04 03:40:38;;;;;;;9.57;4.13;;;17.70;1.00;;;;;;5223198;28;20036;-71
2023/07/04 03:43:12;;;;;;;5.70;3.53;;;17.80;1.00;;;;;;5204706;28;20619;-70
2023/07/04 03:45:47;;;;;;;6.50;4.13;;;17.90;1.00;;;;;;5218095;28;20206;-70
2023/07/04 03:48:18;;;;;;;8.43;4.18;;;17.80;1.00;;;;;;5223106;28;20028;-70
2023/07/04 03:50:49;;;;;;;5.15;3.95;;;18.10;1.00;;;;;;5223142;28;20029;-71
2023/07/04 03:53:20;;;;;;;6.45;3.67;;;18.10;1.00;;;;;;5240339;28;20039;-71
2023/07/04 03:55:52;;;;;;;7.55;4.28;;;18.20;1.00;;;;;;5215371;28;20029;-71
2023/07/04 03:58:28;;;;;;;5.68;3.85;;;18.20;1.00;;;;;;5238989;28;20485;-70
2023/07/04 04:01:06;;;;;;;5.15;3.65;;;18.20;1.00;;;;;;5203099;28;20031;-72
2023/07/04 04:03:42;;;;;;;5.80;3.60;;;18.30;1.00;;;;;;5220949;28;20201;-71
2023/07/04 04:06:13;;;;;;;6.28;3.83;;;18.40;1.00;;;;;;5238177;28;20052;-72
2023/07/04 04:08:45;;;;;;;7.88;4.38;;;18.70;99.90;;;;;;5242228;28;20201;-72
2023/07/04 04:11:16;;;;;;;5.18;3.88;;;18.90;99.90;;;;;;5222990;28;20044;-71
2023/07/04 04:13:48;;;;;;;7.57;3.80;;;19.00;99.90;;;;;;5218620;28;20339;-72
2023/07/04 04:16:22;;;;;;;7.18;3.90;;;18.90;99.90;;;;;;5233161;28;20039;-71
2023/07/04 04:18:58;;;;;;;8.40;3.78;;;18.90;99.90;;;;;;5203562;28;20361;-70
2023/07/04 04:21:33;;;;;;;5.88;3.50;;;19.00;99.90;;;;;;5214819;28;20038;-70
2023/07/04 04:24:08;;;;;;;5.35;3.38;;;19.10;99.90;;;;;;5206340;28;20075;-71
2023/07/04 04:26:40;;;;;;;6.25;4.20;;;19.40;60.80;;;;;;5220462;28;20047;-73
2023/07/04 04:29:13;;;;;;;5.03;3.25;;;19.70;1.00;;;;;;5222031;28;20028;-71
2023/07/04 04:31:47;;;;;;;6.35;3.13;;;20.00;1.00;;;;;;5218949;28;20066;-72
2023/07/04 04:34:20;;;;;;;5.65;3.78;;;20.30;99.90;;;;;;5228697;28;20334;-71
2023/07/04 04:36:51;;;;;;;4.87;3.23;;;20.60;99.90;;;;;;5221206;28;20032;-71
2023/07/04 04:39:23;;;;;;;5.10;3.40;;;20.80;61.70;;;;;;5202340;28;20036;-72
2023/07/04 04:41:58;;;;;;;6.00;3.53;;;21.20;1.00;;;;;;5192288;28;20533;-71
2023/07/04 04:44:32;;;;;;;5.85;3.78;;;21.40;1.00;;;;;;5221948;28;20048;-72
2023/07/04 04:47:08;;;;;;;7.97;4.10;;;21.50;99.90;;;;;;5228616;28;20024;-71
2023/07/04 04:49:40;;;;;;;6.32;3.58;;;21.70;99.90;;;;;;5174048;28;20036;-71
2023/07/04 04:52:13;;;;;;;7.22;4.22;;;22.10;99.90;;;;;;5192529;28;20245;-71
2023/07/04 04:54:47;;;;;;;6.72;3.97;;;22.50;1.00;;;;;;5214773;28;20040;-70
2023/07/04 04:57:19;;;;;;;7.22;3.28;;;22.50;1.00;;;;;;5230324;28;20047;-72
2023/07/04 04:59:51;;;;;;;6.97;3.25;;;22.70;1.00;;;;;;5204687;28;20031;-70
2023/07/04 05:02:27;;;;;;;12.13;4.00;;;22.80;1.00;;;;;;5197569;28;20044;-71
2023/07/04 05:04:59;;;;;;;5.93;3.47;;;23.10;1.00;;;;;;5217249;28;20044;-71
2023/07/04 05:07:30;;;;;;;6.68;3.47;;;23.30;99.90;;;;;;5201286;28;20466;-73
2023/07/04 05:10:07;;;;;;;6.20;3.40;;;23.40;1.00;;;;;;5209341;28;20081;-70
2023/07/04 05:12:39;;;;;;;6.25;3.70;;;23.50;1.00;;;;;;5186925;28;20037;-70
2023/07/04 05:15:10;;;;;;;8.73;3.53;;;23.60;54.40;;;;;;5213918;28;20428;-71
2023/07/04 05:17:41;;;;;;;4.95;3.38;;;23.70;1.00;;;;;;5196051;28;20033;-71
2023/07/04 05:20:14;;;;;;;6.55;3.60;;;23.80;1.00;;;;;;5183177;28;20159;-72
2023/07/04 05:22:45;;;;;;;6.53;3.25;;;23.80;1.00;;;;;;5184361;28;20028;-71
2023/07/04 05:25:16;;;;;;;5.30;2.97;;;24.00;1.00;;;;;;5191763;28;20048;-72
2023/07/04 05:27:50;;;;;;;5.65;3.30;;;24.20;1.00;;;;;;5217190;28;20316;-73
2023/07/04 05:30:22;;;;;;;4.40;2.83;;;24.50;1.00;;;;;;5199177;28;20033;-72
2023/07/04 05:32:55;;;;;;;7.22;3.70;;;24.80;1.00;;;;;;5177675;28;20033;-71
2023/07/04 05:35:26;;;;;;;5.93;3.23;;;24.90;1.00;;;;;;5219907;28;20036;-72
2023/07/04 05:38:00;;;;;;;4.85;3.22;;;24.90;1.00;;;;;;5186389;28;20041;-72
2023/07/04 05:40:31;;;;;;;6.03;3.53;;;24.90;1.00;;;;;;5212722;28;20544;-73
2023/07/04 05:43:08;;;;;;;7.60;3.45;;;24.90;99.90;;;;;;5204838;28;20033;-70
2023/07/04 05:45:51;;;;;;;5.93;2.80;;;24.90;99.90;;;;;;5219333;28;20036;-71
2023/07/04 05:48:25;;;;;;;5.80;3.38;;;24.90;1.00;;;;;;5221111;28;20100;-71
2023/07/04 05:50:58;;;;;;;;;;;24.90;1.00;;;;;;5205034;28;20029;-71
2023/07/04 05:53:34;;;;;;;5.22;3.42;;;24.80;1.00;;;;;;5222401;28;20267;-75
2023/07/04 05:56:13;;;;;;;6.85;3.60;;;24.80;1.00;;;;;;5222271;28;20041;-71
2023/07/04 05:58:50;;;;;;;5.93;2.53;;;25.30;1.00;;;;;;5218126;28;20029;-71
2023/07/04 06:01:23;;;;;;;5.10;2.95;;;25.50;1.00;;;;;;5217283;28;20048;-72
2023/07/04 06:03:56;;;;;;;6.13;3.20;;;25.70;34.80;;;;;;5203153;28;20471;-72
2023/07/04 06:06:37;;;;;;;4.78;2.72;;;26.10;1.00;;;;;;5201314;28;20278;-73
2023/07/04 06:09:12;;;;;;;7.70;3.28;;;25.90;1.00;;;;;;5197819;28;20040;-71
2023/07/04 06:11:46;;;;;;;4.25;2.03;;;26.10;99.90;;;;;;5187655;28;20054;-71
2023/07/04 06:14:26;;;;;;;3.63;2.60;;;26.70;99.90;;;;;;5195831;28;20270;-71
2023/07/04 06:17:02;;;;;;;4.13;2.67;;;26.60;1.00;;;;;;5191565;28;20342;-71
2023/07/04 06:19:37;;;;;;;3.92;2.20;;;26.60;1.00;;;;;;5221002;28;20366;-72
2023/07/04 06:22:08;;;;;;;3.67;2.00;;;26.90;1.00;;;;;;5202697;28;20033;-71
2023/07/04 06:24:42;;;;;;;4.25;2.15;;;27.20;1.00;;;;;;5186752;28;20037;-71
2023/07/04 06:27:14;;;;;;;4.28;2.00;;;27.50;1.00;;;;;;5219701;28;20037;-71
2023/07/04 06:29:48;;;;;;;3.50;1.98;;;27.20;1.00;;;;;;5221450;28;20017;-70
2023/07/04 06:32:21;;;;;;;3.95;2.22;;;27.70;1.00;;;;;;5196346;28;20037;-70
2023/07/04 06:34:52;;;;;;;2.60;1.67;;;28.60;1.00;;;;;;5200945;28;20018;-71
2023/07/04 06:37:23;;;;;;;2.85;1.85;;;29.00;99.90;;;;;;5170660;28;20044;-70
2023/07/04 06:39:55;;;;;;;3.65;1.85;;;29.30;99.90;;;;;;5202506;28;20040;-71
2023/07/04 06:42:30;;;;;;;2.85;2.10;;;29.10;99.90;;;;;;5154670;28;20037;-70
2023/07/04 06:45:01;;;;;;;5.72;2.15;;;29.10;99.90;;;;;;5203283;28;20249;-72
2023/07/04 06:47:32;;;;;;;4.40;2.28;;;29.30;99.90;;;;;;5200379;28;20085;-70
2023/07/04 06:50:06;;;;;;;4.13;2.35;;;29.10;99.90;;;;;;5201904;28;20264;-72
2023/07/04 06:52:42;;;;;;;2.70;2.25;;;29.30;99.90;;;;;;5219021;28;20037;-71
2023/07/04 06:55:16;;;;;;;3.78;2.28;;;29.70;99.90;;;;;;5199189;28;20056;-72
2023/07/04 06:57:50;;;;;;;4.47;1.95;;;30.00;99.90;;;;;;5198853;28;20253;-72
2023/07/04 07:00:22;;;;;;;3.58;1.95;;;30.20;99.90;;;;;;5179971;28;20336;-71
2023/07/04 07:02:53;;;;;;;2.70;1.83;;;30.50;99.90;;;;;;5215987;28;20041;-72
2023/07/04 07:05:24;;;;;;;3.28;1.60;;;30.60;99.90;;;;;;5187712;28;20044;-72
2023/07/04 07:07:58;;;;;;;2.03;1.70;;;30.70;99.90;;;;;;5201662;28;20051;-72
2023/07/04 07:10:31;;;;;;;4.40;1.90;;;31.10;99.90;;;;;;5221169;28;20035;-71
2023/07/04 07:13:06;;;;;;;3.33;2.40;;;30.80;99.90;;;;;;5200562;28;20041;-71
2023/07/04 07:15:44;;;;;;;8.55;2.40;;;30.70;99.90;;;;;;5180607;28;20042;-71
2023/07/04 07:18:15;;;;;;;3.88;1.95;;;30.50;99.90;;;;;;5216404;28;20204;-71
2023/07/04 07:20:46;;;;;;;3.75;2.45;;;30.20;99.90;;;;;;5220985;28;20034;-72
2023/07/04 07:23:18;;;;;;;4.32;2.28;;;30.90;99.90;;;;;;5201627;28;20428;-71
2023/07/04 07:25:58;;;;;;;7.65;2.47;;;31.10;99.90;;;;;;5200916;28;20038;-72
2023/07/04 07:28:31;;;;;;;5.88;2.35;;;31.30;99.90;;;;;;5215519;28;20025;-71
2023/07/04 07:31:06;;;;;;;3.60;2.13;;;31.40;99.90;;;;;;5195546;28;20521;-72
2023/07/04 07:33:45;;;;;;;5.10;2.60;;;31.40;99.90;;;;;;5219786;28;20025;-71
2023/07/04 07:36:22;;;;;;;2.92;2.08;;;31.00;99.90;;;;;;5199047;28;20039;-73
2023/07/04 07:39:04;;;;;;;4.57;2.15;;;31.10;99.90;;;;;;5192027;28;20059;-72
2023/07/04 07:41:46;;;;;;;4.30;2.58;;;31.20;99.90;;;;;;5190394;28;20249;-71
2023/07/04 07:44:18;;;;;;;2.78;1.90;;;31.00;99.90;;;;;;5199928;28;20127;-71
2023/07/04 07:46:51;;;;;;;7.18;2.80;;;31.30;99.90;;;;;;5199631;28;20043;-71
2023/07/04 07:49:22;;;;;;;3.00;2.03;;;31.20;99.90;;;;;;5205946;28;20051;-72
2023/07/04 07:51:54;;;;;;;4.13;2.53;;;31.30;99.90;;;;;;5182934;28;20063;-72
2023/07/04 07:54:25;;;;;;;4.90;2.60;;;31.20;99.90;;;;;;5181124;28;20047;-72
2023/07/04 07:56:56;;;;;;;2.70;2.13;;;31.30;99.90;;;;;;5154985;28;20550;-70
2023/07/04 07:59:27;;;;;;;5.68;2.10;;;31.40;99.90;;;;;;5199158;28;20047;-72
2023/07/04 08:01:58;;;;;;;3.13;2.25;;;31.40;99.90;;;;;;5204393;28;20051;-73
2023/07/04 08:04:32;;;;;;;3.40;2.20;;;31.70;99.90;;;;;;5183720;28;20043;-73
2023/07/04 08:07:10;;;;;;;4.78;2.50;;;31.90;99.90;;;;;;5215482;28;20628;-73
2023/07/04 08:09:43;;;;;;;3.25;2.22;;;32.20;99.90;;;;;;5197122;28;20048;-71
2023/07/04 08:12:17;;;;;;;4.45;2.78;;;31.70;99.90;;;;;;5196843;28;20036;-72
2023/07/04 08:14:51;;;;;;;4.35;2.60;;;30.90;99.90;;;;;;5181487;28;20032;-71
2023/07/04 08:17:25;;;;;;;5.03;2.63;;;30.80;89.70;;;;;;5178824;28;20045;-71
2023/07/04 08:19:59;;;;;;;6.70;2.63;;;31.40;99.90;;;;;;5214993;28;20051;-73
2023/07/04 08:22:32;;;;;;;5.45;2.30;;;32.20;99.90;;;;;;5199478;28;20037;-71
2023/07/04 08:25:05;;;;;;;5.75;2.92;;;33.00;99.90;;;;;;5209404;28;20207;-72
2023/07/04 08:27:36;;;;;;;3.67;2.30;;;33.10;99.90;;;;;;5197325;28;20047;-71
2023/07/04 08:30:10;;;;;;;4.47;2.85;;;33.30;99.90;;;;;;5182287;28;20037;-72
2023/07/04 08:32:44;;;;;;;5.00;2.78;;;33.00;99.90;;;;;;5197999;28;20040;-72
2023/07/04 08:35:15;;;;;;;;;;;31.50;99.90;;;;;;5214600;28;20037;-70
2023/07/04 08:37:46;;;;;;;3.70;2.47;;;30.80;99.90;;;;;;5221265;28;19912;-71
2023/07/04 08:40:20;;;;;;;3.28;2.30;;;30.00;99.90;;;;;;5211789;28;20037;-72
2023/07/04 08:42:52;;;;;;;3.08;2.40;;;29.80;1.00;;;;;;5195371;28;20035;-72
2023/07/04 08:45:28;;;;;;;4.05;2.53;;;30.50;1.00;;;;;;5194455;28;20048;-73
2023/07/04 08:48:00;;;;;;;5.00;2.80;;;30.70;1.00;;;;;;5186369;28;20039;-73
2023/07/04 08:50:37;;;;;;;7.65;3.30;;;30.70;1.00;;;;;;5182012;28;20342;-71
2023/07/04 08:53:22;;;;;;;5.07;2.63;;;29.40;1.00;;;;;;5182793;28;20032;-73
2023/07/04 08:56:26;;;;;;;4.93;2.33;;;29.10;1.00;;;;;;5199586;28;20294;-71
2023/07/04 08:59:21;;;;;;;6.10;2.65;;;29.60;79.90;;;;;;5177339;28;20037;-71
2023/07/04 09:02:05;;;;;;;4.60;2.65;;;30.10;12.00;;;;;;5193647;28;20049;-72
2023/07/04 09:04:46;;;;;;;3.10;2.35;;;30.60;16.30;;;;;;5206331;28;20024;-72
2023/07/04 09:07:37;;;;;;;4.45;2.70;;;31.10;10.00;;;;;;5186281;28;20470;-72
2023/07/04 09:10:31;;;;;;;4.50;2.95;;;30.20;1.00;;;;;;5194377;28;20535;-72
2023/07/04 09:13:10;;;;;;;3.67;2.50;;;30.20;1.00;;;;;;5234429;28;20035;-72
2023/07/04 09:15:45;;;;;;;5.88;2.55;;;30.70;1.00;;;;;;5209764;28;20264;-72
2023/07/04 09:18:54;;;;;;;2.55;2.20;;;30.40;1.00;;;;;;5209140;28;20340;-71
2023/07/04 09:21:28;;;;;;;3.80;2.38;;;30.10;3.90;;;;;;5207262;28;20040;-69
2023/07/04 09:24:03;;;;;;;6.05;3.13;;;29.20;95.60;;;;;;5221195;28;20044;-71
2023/07/04 09:26:54;;;;;;;7.22;3.67;;;28.50;1.00;;;;;;5208464;28;20044;-71
2023/07/04 09:29:26;;;;;;;5.65;3.67;;;27.60;1.00;;;;;;5187904;28;20047;-70
2023/07/04 09:32:02;;;;;;;5.25;3.05;;;27.20;1.00;;;;;;5222006;28;20361;-69
2023/07/04 09:34:47;;;;;;;4.45;3.28;;;27.20;1.00;;;;;;5196947;28;20582;-69
2023/07/04 09:37:24;;;;;;;6.20;3.42;;;27.30;1.00;;;;;;5213877;28;20029;-71
2023/07/04 09:39:58;;;;;;;5.10;3.25;;;27.50;1.00;;;;;;5204895;28;20037;-70
2023/07/04 09:42:32;;;;;;;4.22;2.85;;;28.00;1.00;;;;;;5209402;28;20028;-70
2023/07/04 09:45:07;;;;;;;;;;;28.00;1.00;;;;;;5222938;28;20049;-72
2023/07/04 09:47:49;;;;;;;4.82;2.80;;;28.20;1.00;;;;;;5202117;28;19912;-70
2023/07/04 09:50:38;;;;;;;3.65;3.03;;;28.20;1.00;;;;;;5197064;28;20060;-70
2023/07/04 09:53:18;;;;;;;7.38;3.30;;;29.60;1.00;;;;;;5206201;28;20032;-70
2023/07/04 09:56:03;;;;;;;5.80;3.22;;;30.50;1.00;;;;;;5196794;28;20041;-71
2023/07/04 09:58:36;;;;;;;4.13;2.90;;;31.60;1.00;;;;;;5220471;28;20281;-70
2023/07/04 10:01:18;;;;;;;4.13;2.65;;;32.80;1.00;;;;;;5203353;28;20064;-71
2023/07/04 10:04:06;;;;;;;5.15;2.80;;;33.60;1.00;;;;;;5221641;28;20042;-70
2023/07/04 10:06:38;;;;;;;4.28;2.95;;;33.50;1.00;;;;;;5198623;28;20051;-71
2023/07/04 10:09:18;;;;;;;4.53;2.72;;;33.80;1.00;;;;;;5225068;28;20107;-72
2023/07/04 10:12:11;;;;;;;4.82;3.20;;;34.20;1.00;;;;;;5214653;28;20040;-71
2023/07/04 10:14:46;;;;;;;6.40;3.28;;;33.90;1.00;;;;;;5225031;28;20040;-71
2023/07/04 10:17:30;;;;;;;4.72;3.05;;;33.70;1.00;;;;;;5239519;28;20034;-70
2023/07/04 10:20:08;;;;;;;3.70;2.90;;;33.30;1.00;;;;;;5248293;28;20034;-72
2023/07/04 10:22:47;;;;;;;5.22;2.95;;;33.60;1.00;;;;;;5217960;28;20028;-72
2023/07/04 10:25:25;;;;;;;6.90;3.38;;;32.60;1.00;;;;;;5224955;28;20033;-71
2023/07/04 10:28:06;;;;;;;5.50;2.78;;;31.40;1.00;;;;;;5216306;28;20485;-71
2023/07/04 10:30:45;;;;;;;4.97;3.10;;;30.80;1.00;;;;;;5225790;28;20037;-71
2023/07/04 10:33:22;;;;;;;3.70;2.33;;;31.70;1.00;;;;;;5211777;28;20036;-72
2023/07/04 10:35:56;;;;;;;7.13;3.25;;;32.50;1.00;;;;;;5208503;28;20040;-70
2023/07/04 10:38:43;;;;;;;3.53;2.10;;;32.30;1.00;;;;;;5235327;28;20036;-71
2023/07/04 10:41:27;;;;;;;3.92;2.63;;;33.40;1.00;;;;;;5232434;28;20036;-71
2023/07/04 10:44:08;;;;;;;4.50;3.00;;;35.50;1.00;;;;;;5242646;28;20025;-71
2023/07/04 10:47:05;;;;;;;4.60;2.95;;;35.00;1.00;;;;;;5222798;28;20055;-71
2023/07/04 10:49:52;;;;;;;3.05;2.17;;;35.10;1.00;;;;;;5218648;28;20337;-71
2023/07/04 10:52:31;;;;;;;5.68;3.03;;;35.10;1.00;;;;;;5214088;28;20548;-71
2023/07/04 10:55:10;;;;;;;4.63;2.70;;;34.00;1.00;;;;;;5236975;28;20475;-71
2023/07/04 10:57:47;;;;;;;3.03;2.30;;;32.90;1.00;;;;;;5224396;28;20057;-71
2023/07/04 11:00:27;;;;;;;4.15;3.05;;;31.90;1.00;;;;;;5220952;28;20230;-71
2023/07/04 11:03:06;;;;;;;4.47;2.70;;;32.40;1.00;;;;;;5188646;28;20045;-72
2023/07/04 11:05:44;;;;;;;3.88;2.45;;;33.50;1.00;;;;;;5202973;28;20041;-71
2023/07/04 11:08:21;;;;;;;5.65;2.95;;;35.60;1.00;;;;;;5219534;28;20028;-71
2023/07/04 11:11:06;;;;;;;4.85;2.80;;;36.20;1.00;;;;;;5221423;28;20020;-71
2023/07/04 11:13:48;;;;;;;4.10;2.20;;;36.50;1.00;;;;;;5186114;28;20390;-71
2023/07/04 11:16:27;;;;;;;3.35;2.20;;;37.80;1.00;;;;;;5199870;28;20039;-73
2023/07/04 11:19:21;;;;;;;3.67;2.22;;;37.00;1.00;;;;;;5228344;28;20455;-72
2023/07/04 11:22:02;;;;;;;4.13;1.95;;;36.90;1.00;;;;;;5207448;28;20041;-70
2023/07/04 11:24:43;;;;;;;3.03;2.20;;;38.00;1.00;;;;;;5184744;28;20033;-71
2023/07/04 11:27:32;;;;;;;3.33;2.03;;;38.80;1.00;;;;;;5169556;28;20068;-72
2023/07/04 11:30:06;;;;;;;4.28;2.55;;;40.30;6.60;;;;;;5184038;28;20057;-72
2023/07/04 11:32:37;;;;;;;3.03;2.13;;;39.30;1.00;;;;;;5180498;28;20035;-72
2023/07/04 11:35:11;;;;;;;3.63;2.15;;;39.50;1.00;;;;;;5203891;28;20036;-71
2023/07/04 11:37:53;;;;;;;2.83;2.08;;;41.00;1.00;;;;;;5181377;28;20516;-72
2023/07/04 11:40:30;;;;;;;3.08;2.08;;;42.10;8.10;;;;;;5186579;28;20037;-72
2023/07/04 11:43:22;;;;;;;4.32;2.40;;;41.90;1.00;;;;;;5193026;28;20058;-71
2023/07/04 11:45:57;;;;;;;2.03;1.73;;;41.60;1.00;;;;;;5173926;28;20048;-72
2023/07/04 11:48:35;;;;;;;2.20;1.80;;;41.30;1.00;;;;;;5180163;28;20040;-72
2023/07/04 11:51:11;;;;;;;2.72;2.03;;;40.80;1.00;;;;;;5188319;28;20518;-71
2023/07/04 11:53:51;;;;;;;3.28;1.88;;;39.00;1.00;;;;;;5199378;28;20048;-71
2023/07/04 11:56:27;;;;;;;3.25;2.85;;;36.50;1.00;;;;;;5183325;28;20025;-70
2023/07/04 11:59:13;;;;;;;2.78;2.17;;;35.30;1.00;;;;;;5200884;28;20033;-71
2023/07/04 12:01:51;;;;;;;4.28;2.25;;;32.20;1.00;;;;;;5192631;28;20226;-71
2023/07/04 12:04:43;;;;;;;3.65;2.15;;;31.40;1.00;;;;;;5183235;28;20032;-71
2023/07/04 12:07:32;;;;;;;3.97;2.35;;;30.90;1.00;;;;;;5181774;28;20152;-71
2023/07/04 12:10:22;;;;;;;3.72;2.28;;;31.50;1.00;;;;;;5185856;28;20033;-70
2023/07/04 12:13:00;;;;;;;3.08;2.28;;;33.90;1.00;;;;;;5201289;28;20051;-72
2023/07/04 12:15:36;;;;;;;2.65;2.10;;;36.00;1.00;;;;;;5204824;28;20029;-71
2023/07/04 12:18:27;;;;;;;2.05;1.67;;;37.70;1.00;;;;;;5193839;28;20043;-71
2023/07/04 12:20:59;;;;;;;2.35;1.90;;;37.00;1.00;;;;;;5199197;28;20108;-73
2023/07/04 12:23:30;;;;;;;2.90;1.67;;;34.80;1.00;;;;;;5181428;28;20041;-71
2023/07/04 12:26:07;;;;;;;2.28;1.60;;;33.20;1.00;;;;;;5210173;28;20032;-72
2023/07/04 12:28:45;;;;;;;2.20;1.48;;;31.90;1.00;;;;;;5182193;28;20037;-71
2023/07/04 12:31:16;;;;;;;3.78;1.55;;;32.00;1.00;;;;;;5201196;28;20037;-71
2023/07/04 12:33:48;;;;;;;2.40;2.08;;;33.50;1.00;;;;;;5203038;28;20025;-71
2023/07/04 12:36:27;;;;;;;1.67;1.45;;;35.10;1.00;;;;;;5216354;28;20021;-70
2023/07/04 12:39:00;;;;;;;2.17;1.35;;;36.40;1.00;;;;;;5192525;28;20235;-71
2023/07/04 12:41:38;;;;;;;1.80;1.45;;;34.60;1.00;;;;;;5208765;28;20356;-70
2023/07/04 12:44:13;;;;;;;2.20;1.38;;;34.40;1.00;;;;;;5174632;28;20033;-71
2023/07/04 12:46:44;;;;;;;1.90;1.40;;;32.40;1.00;;;;;;5164073;28;20059;-71
2023/07/04 12:49:17;;;;;;;2.67;1.40;;;32.30;1.00;;;;;;5191570;28;20459;-71
2023/07/04 12:51:48;;;;;;;1.67;1.25;;;33.80;1.00;;;;;;5180287;28;20405;-70
2023/07/04 12:54:19;;;;;;;1.58;1.48;;;36.20;1.00;;;;;;5180953;28;20265;-71
2023/07/04 12:56:53;;;;;;;1.40;0.95;;;37.10;1.00;;;;;;5170675;28;20045;-71
2023/07/04 12:59:40;;;;;;;1.23;1.13;;;36.90;1.00;;;;;;5214095;28;20043;-73
2023/07/04 13:02:23;;;;;;;1.77;1.15;;;36.30;1.00;;;;;;5165697;28;20117;-71
2023/07/04 13:04:57;;;;;;;1.15;0.93;;;36.10;1.00;;;;;;5204844;28;20035;-72
2023/07/04 13:07:28;;;;;;;1.58;1.20;;;34.40;1.00;;;;;;5195578;28;20046;-71
2023/07/04 13:10:00;;;;;;;2.58;1.48;;;34.20;1.00;;;;;;5200601;28;20040;-71
2023/07/04 13:12:34;;;;;;;1.98;1.27;;;34.00;1.00;;;;;;5197613;28;20076;-71
2023/07/04 13:15:18;;;;;;;1.42;1.23;;;34.60;1.00;;;;;;5194435;28;20041;-72
2023/07/04 13:17:59;;;;;;;1.73;1.40;;;34.50;1.00;;;;;;5196932;28;20049;-71
2023/07/04 13:20:32;;;;;;;1.40;1.25;;;35.20;1.00;;;;;;5173366;28;20033;-71
2023/07/04 13:23:40;;;;;;;2.38;1.30;;;38.10;1.00;;;;;;5169445;28;20059;-72
2023/07/04 13:26:23;;;;;;;1.35;1.25;;;39.10;1.00;;;;;;5176013;28;20505;-71
2023/07/04 13:28:57;;;;;;;3.90;1.50;;;38.20;1.00;;;;;;5167013;28;20042;-71
2023/07/04 13:31:31;;;;;;;1.48;1.38;;;36.40;1.00;;;;;;5146032;28;20033;-72
2023/07/04 13:34:22;;;;;;;1.83;1.65;;;36.50;1.00;;;;;;5147641;28;20076;-71
2023/07/04 13:37:02;;;;;;;1.75;1.50;;;37.20;1.00;;;;;;5172941;28;20037;-71
2023/07/04 13:39:35;;;;;;;2.45;1.60;;;35.80;1.00;;;;;;5162622;28;20372;-71
2023/07/04 13:42:10;;;;;;;2.00;1.25;;;36.10;1.00;;;;;;5161407;28;20090;-71